Whitehouse, NJ (08888)

12:32 PM EDT on August 23, 2014 (GMT -0400)
Whitehouse Weather Command | Change Station
CLOSE
Current Station
Personal Weather Station
Location: Readington Township, NJ
Elevation: 171 ft
Nearby Weather Stations

Elev 171 ft 40.61 °N, 74.77 °W | Updated 24 seconds ago

Light Rain
Light Rain
68.9 °F
Feels Like 68.9 °F
N
2.0
Wind Variable Wind from NW
Gusts 2.5 mph

Today
High -- | Low -- °F
--% Chance of Precip.
Yesterday
High -- | Low -- °F
Precip. -- in
6:17 AM 7:45 PM
Waning Crescent, 3% visible
Pressure 30.07 in
Visibility 10.0 miles
Clouds Few 2900 ft
Overcast 3800 ft
Dew Point 68 °F
Humidity 97%
Rainfall 0.04 in
Snow Depth Not available.
UV 3 out of 12
Pollen 6.90 out of 12
Air Quality Not available.
Flu Activity Not available.
METAR KSMQ 231553Z AUTO 08006KT 10SM -RA FEW029 OVC038 21/17 A3007 RMK AO2 SLP183 P0002 T02060167

More Conditions Fewer Conditions

Pressure 30.07 in
Visibility 10.0 miles
Clouds Few 2900 ft
Overcast 3800 ft
Dew Point 68 °F
Humidity 97%
Rainfall 0.04 in
Snow Depth Not available.
UV 3 out of 12
Pollen 6.90 out of 12
Air Quality Not available.
Flu Activity Not available.
METAR KSMQ 231553Z AUTO 08006KT 10SM -RA FEW029 OVC038 21/17 A3007 RMK AO2 SLP183 P0002 T02060167

More Conditions Fewer Conditions

Nowcast | as of 12:24 PM EDT on August 23, 2014

At 1221 PM...a broad area of showers continues to move southeastward from the Poconos toward Trenton and Atlantic City. Meanwhile...a narrow band of showers has also formed along the New Jersey shore near Forked River...and is moving southwestward toward Marlton Lakes. Any shower may contain embedded heavier downpours. Rainfall up to around one-tenth of an inch is possible over the next hour.

×

10-Day Weather Forecast

Almanac

Astronomy

Aug. 23, 2014 Rise Set
Actual Time 6:17 AM EDT 7:45 PM EDT
Civil Twilight 5:48 AM EDT 8:13 PM EDT
Nautical Twilight 5:14 AM EDT 8:48 PM EDT
Astronomical Twilight 4:37 AM EDT 9:24 PM EDT
Moon 4:31 AM EDT 6:28 PM EDT
Length of Visible Light 14h 25m
Length of Day
13h 27m
Tomorrow will be 2m 30s shorter.
Waning Crescent, 3% of the Moon is Illuminated
Today
Waning Crescent
Aug 25
New
Sep 2
First Quarter
Sep 8
Full
Sep 15
Last Quarter

Today's Extremes

State Highs State Lows

Community

WunderPhotos

Upload Photos

1,746,523 photos uploaded!

WunderBlogs® & News

By Dr. Jeff Masters
Director of Meteorology, Weather Underground
By Kari Strenfel
Meteorologist, Weather Underground
By Christopher C. Burt
Weather Historian, Weather Underground
August 23, 2014
August 23, 2014
August 23, 2014

Nearby

Snow Depth

Station Depth Elevation
No new snow has been reported.

Earthquake Activity

City Distance Mag. Time & Date
No recent earthquake activity has been reported nearby.
Minimum magnitude displayed is 2.5.

Coastal Water Temperatures

Place Temperature
Sandy Hook, NJ 73.0 °F
The Battery, NY 73.0 °F
Bergen Point West Reach, NJ 73.9 °F

Nearby Weather Stations